sensor_id;sensor_type;location;lat;lon;timestamp;P1;durP1;ratioP1;P2;durP2;ratioP2
58366;SDS011;57745;42.524;12.052;2023-03-01T00:00:39;3.33;;;2.03;;
58366;SDS011;57745;42.524;12.052;2023-03-01T00:03:05;4.43;;;2.63;;
58366;SDS011;57745;42.524;12.052;2023-03-01T00:05:31;3.25;;;2.10;;
58366;SDS011;57745;42.524;12.052;2023-03-01T00:07:57;3.80;;;2.40;;
58366;SDS011;57745;42.524;12.052;2023-03-01T00:10:22;3.28;;;2.33;;
58366;SDS011;57745;42.524;12.052;2023-03-01T00:12:48;3.85;;;2.20;;
58366;SDS011;57745;42.524;12.052;2023-03-01T00:15:13;3.75;;;2.40;;
58366;SDS011;57745;42.524;12.052;2023-03-01T00:17:39;3.42;;;2.17;;
58366;SDS011;57745;42.524;12.052;2023-03-01T00:20:04;3.72;;;2.15;;
58366;SDS011;57745;42.524;12.052;2023-03-01T00:22:35;4.20;;;2.30;;
58366;SDS011;57745;42.524;12.052;2023-03-01T00:25:01;5.05;;;2.22;;
58366;SDS011;57745;42.524;12.052;2023-03-01T00:27:26;3.97;;;2.90;;
58366;SDS011;57745;42.524;12.052;2023-03-01T00:29:52;3.25;;;2.42;;
58366;SDS011;57745;42.524;12.052;2023-03-01T00:32:17;3.63;;;2.20;;
58366;SDS011;57745;42.524;12.052;2023-03-01T00:34:43;4.80;;;2.42;;
58366;SDS011;57745;42.524;12.052;2023-03-01T00:37:18;4.05;;;2.40;;
58366;SDS011;57745;42.524;12.052;2023-03-01T00:39:45;3.78;;;2.20;;
58366;SDS011;57745;42.524;12.052;2023-03-01T00:42:11;5.47;;;2.78;;
58366;SDS011;57745;42.524;12.052;2023-03-01T00:44:37;4.32;;;2.30;;
58366;SDS011;57745;42.524;12.052;2023-03-01T00:47:02;4.05;;;2.85;;
58366;SDS011;57745;42.524;12.052;2023-03-01T00:49:28;2.95;;;2.08;;
58366;SDS011;57745;42.524;12.052;2023-03-01T00:51:53;4.97;;;2.35;;
58366;SDS011;57745;42.524;12.052;2023-03-01T00:54:19;5.00;;;2.50;;
58366;SDS011;57745;42.524;12.052;2023-03-01T00:56:44;3.72;;;2.42;;
58366;SDS011;57745;42.524;12.052;2023-03-01T00:59:10;3.08;;;2.40;;
58366;SDS011;57745;42.524;12.052;2023-03-01T01:01:35;4.90;;;2.72;;
58366;SDS011;57745;42.524;12.052;2023-03-01T01:04:02;3.85;;;2.38;;
58366;SDS011;57745;42.524;12.052;2023-03-01T01:06:34;4.47;;;2.70;;
58366;SDS011;57745;42.524;12.052;2023-03-01T01:09:03;4.07;;;2.80;;
58366;SDS011;57745;42.524;12.052;2023-03-01T01:11:30;4.65;;;2.58;;
58366;SDS011;57745;42.524;12.052;2023-03-01T01:13:56;4.00;;;2.58;;
58366;SDS011;57745;42.524;12.052;2023-03-01T01:16:23;3.90;;;2.53;;
58366;SDS011;57745;42.524;12.052;2023-03-01T01:18:50;4.43;;;2.75;;
58366;SDS011;57745;42.524;12.052;2023-03-01T01:21:17;3.85;;;2.17;;
58366;SDS011;57745;42.524;12.052;2023-03-01T01:23:44;4.07;;;2.80;;
58366;SDS011;57745;42.524;12.052;2023-03-01T01:26:12;4.32;;;2.95;;
58366;SDS011;57745;42.524;12.052;2023-03-01T01:28:40;6.43;;;2.50;;
58366;SDS011;57745;42.524;12.052;2023-03-01T01:31:05;5.07;;;2.53;;
58366;SDS011;57745;42.524;12.052;2023-03-01T01:33:31;3.30;;;2.40;;
58366;SDS011;57745;42.524;12.052;2023-03-01T01:35:57;3.28;;;2.22;;
58366;SDS011;57745;42.524;12.052;2023-03-01T01:38:23;5.00;;;3.05;;
58366;SDS011;57745;42.524;12.052;2023-03-01T01:40:49;5.60;;;2.67;;
58366;SDS011;57745;42.524;12.052;2023-03-01T01:43:19;3.97;;;2.50;;
58366;SDS011;57745;42.524;12.052;2023-03-01T01:48:18;5.00;;;2.88;;
58366;SDS011;57745;42.524;12.052;2023-03-01T01:50:58;4.47;;;2.40;;
58366;SDS011;57745;42.524;12.052;2023-03-01T01:53:25;4.45;;;2.90;;
58366;SDS011;57745;42.524;12.052;2023-03-01T01:55:53;4.13;;;2.53;;
58366;SDS011;57745;42.524;12.052;2023-03-01T01:58:24;5.07;;;3.03;;
58366;SDS011;57745;42.524;12.052;2023-03-01T02:00:52;4.22;;;2.38;;
58366;SDS011;57745;42.524;12.052;2023-03-01T02:03:25;3.30;;;2.30;;
58366;SDS011;57745;42.524;12.052;2023-03-01T02:08:30;4.32;;;2.17;;
58366;SDS011;57745;42.524;12.052;2023-03-01T02:10:58;3.72;;;2.05;;
58366;SDS011;57745;42.524;12.052;2023-03-01T02:13:24;2.67;;;1.85;;
58366;SDS011;57745;42.524;12.052;2023-03-01T02:15:51;2.13;;;1.50;;
58366;SDS011;57745;42.524;12.052;2023-03-01T02:18:17;2.58;;;1.77;;
58366;SDS011;57745;42.524;12.052;2023-03-01T02:23:17;2.60;;;1.67;;
58366;SDS011;57745;42.524;12.052;2023-03-01T02:25:54;2.22;;;1.60;;
58366;SDS011;57745;42.524;12.052;2023-03-01T02:28:25;2.30;;;1.60;;
58366;SDS011;57745;42.524;12.052;2023-03-01T02:30:54;3.03;;;1.60;;
58366;SDS011;57745;42.524;12.052;2023-03-01T02:33:38;3.92;;;1.85;;
58366;SDS011;57745;42.524;12.052;2023-03-01T02:36:09;1.90;;;1.40;;
58366;SDS011;57745;42.524;12.052;2023-03-01T02:38:40;3.03;;;1.90;;
58366;SDS011;57745;42.524;12.052;2023-03-01T02:41:06;2.92;;;2.08;;
58366;SDS011;57745;42.524;12.052;2023-03-01T02:43:33;2.30;;;1.60;;
58366;SDS011;57745;42.524;12.052;2023-03-01T02:46:03;2.55;;;1.75;;
58366;SDS011;57745;42.524;12.052;2023-03-01T02:48:49;2.58;;;1.55;;
58366;SDS011;57745;42.524;12.052;2023-03-01T02:54:28;3.50;;;1.83;;
58366;SDS011;57745;42.524;12.052;2023-03-01T02:56:59;2.20;;;1.60;;
58366;SDS011;57745;42.524;12.052;2023-03-01T02:59:27;2.20;;;1.70;;
58366;SDS011;57745;42.524;12.052;2023-03-01T03:01:55;2.70;;;1.73;;
58366;SDS011;57745;42.524;12.052;2023-03-01T03:04:21;3.10;;;1.70;;
58366;SDS011;57745;42.524;12.052;2023-03-01T03:06:47;3.35;;;1.65;;
58366;SDS011;57745;42.524;12.052;2023-03-01T03:09:15;3.95;;;1.45;;
58366;SDS011;57745;42.524;12.052;2023-03-01T03:11:41;3.38;;;1.45;;
58366;SDS011;57745;42.524;12.052;2023-03-01T03:14:11;2.63;;;1.40;;
58366;SDS011;57745;42.524;12.052;2023-03-01T03:16:46;1.88;;;1.30;;
58366;SDS011;57745;42.524;12.052;2023-03-01T03:19:15;2.70;;;1.60;;
58366;SDS011;57745;42.524;12.052;2023-03-01T03:21:41;2.35;;;1.27;;
58366;SDS011;57745;42.524;12.052;2023-03-01T03:24:07;3.03;;;1.50;;
58366;SDS011;57745;42.524;12.052;2023-03-01T03:26:33;5.07;;;1.30;;
58366;SDS011;57745;42.524;12.052;2023-03-01T03:28:58;3.05;;;1.48;;
58366;SDS011;57745;42.524;12.052;2023-03-01T03:31:24;2.58;;;1.20;;
58366;SDS011;57745;42.524;12.052;2023-03-01T03:33:50;1.60;;;0.95;;
58366;SDS011;57745;42.524;12.052;2023-03-01T03:36:16;1.42;;;1.00;;
58366;SDS011;57745;42.524;12.052;2023-03-01T03:38:43;1.73;;;1.13;;
58366;SDS011;57745;42.524;12.052;2023-03-01T03:41:09;2.08;;;1.17;;
58366;SDS011;57745;42.524;12.052;2023-03-01T03:43:35;2.03;;;1.30;;
58366;SDS011;57745;42.524;12.052;2023-03-01T03:46:03;3.38;;;1.35;;
58366;SDS011;57745;42.524;12.052;2023-03-01T03:48:50;1.35;;;0.88;;
58366;SDS011;57745;42.524;12.052;2023-03-01T03:53:42;1.75;;;1.00;;
58366;SDS011;57745;42.524;12.052;2023-03-01T03:56:08;1.60;;;0.95;;
58366;SDS011;57745;42.524;12.052;2023-03-01T03:58:35;2.97;;;0.85;;
58366;SDS011;57745;42.524;12.052;2023-03-01T04:01:00;2.05;;;1.35;;
58366;SDS011;57745;42.524;12.052;2023-03-01T04:03:26;2.67;;;1.08;;
58366;SDS011;57745;42.524;12.052;2023-03-01T04:05:53;2.25;;;1.25;;
58366;SDS011;57745;42.524;12.052;2023-03-01T04:08:19;2.75;;;0.88;;
58366;SDS011;57745;42.524;12.052;2023-03-01T04:10:47;0.93;;;0.70;;
58366;SDS011;57745;42.524;12.052;2023-03-01T04:13:15;1.05;;;0.70;;
58366;SDS011;57745;42.524;12.052;2023-03-01T04:15:44;1.80;;;0.73;;
58366;SDS011;57745;42.524;12.052;2023-03-01T04:18:13;1.05;;;0.63;;
58366;SDS011;57745;42.524;12.052;2023-03-01T04:20:41;0.73;;;0.60;;
58366;SDS011;57745;42.524;12.052;2023-03-01T04:23:12;1.77;;;0.90;;
58366;SDS011;57745;42.524;12.052;2023-03-01T04:28:30;1.52;;;0.70;;
58366;SDS011;57745;42.524;12.052;2023-03-01T04:31:08;1.65;;;0.55;;
58366;SDS011;57745;42.524;12.052;2023-03-01T04:36:11;0.83;;;0.67;;
58366;SDS011;57745;42.524;12.052;2023-03-01T04:38:39;2.00;;;0.82;;
58366;SDS011;57745;42.524;12.052;2023-03-01T04:41:05;0.93;;;0.60;;
58366;SDS011;57745;42.524;12.052;2023-03-01T04:43:32;1.92;;;0.70;;
58366;SDS011;57745;42.524;12.052;2023-03-01T04:46:07;0.93;;;0.57;;
58366;SDS011;57745;42.524;12.052;2023-03-01T04:48:37;1.10;;;0.70;;
58366;SDS011;57745;42.524;12.052;2023-03-01T04:51:04;0.90;;;0.60;;
58366;SDS011;57745;42.524;12.052;2023-03-01T04:53:30;0.77;;;0.47;;
58366;SDS011;57745;42.524;12.052;2023-03-01T04:55:57;1.00;;;0.60;;
58366;SDS011;57745;42.524;12.052;2023-03-01T04:58:23;0.88;;;0.57;;
58366;SDS011;57745;42.524;12.052;2023-03-01T05:00:50;0.70;;;0.40;;
58366;SDS011;57745;42.524;12.052;2023-03-01T05:03:16;0.98;;;0.43;;
58366;SDS011;57745;42.524;12.052;2023-03-01T05:05:43;1.80;;;0.52;;
58366;SDS011;57745;42.524;12.052;2023-03-01T05:08:09;0.50;;;0.40;;
58366;SDS011;57745;42.524;12.052;2023-03-01T05:10:42;1.15;;;0.50;;
58366;SDS011;57745;42.524;12.052;2023-03-01T05:13:12;0.63;;;0.30;;
58366;SDS011;57745;42.524;12.052;2023-03-01T05:15:46;0.95;;;0.50;;
58366;SDS011;57745;42.524;12.052;2023-03-01T05:18:14;1.10;;;0.55;;
58366;SDS011;57745;42.524;12.052;2023-03-01T05:20:39;1.48;;;0.98;;
58366;SDS011;57745;42.524;12.052;2023-03-01T05:23:05;1.42;;;0.73;;
58366;SDS011;57745;42.524;12.052;2023-03-01T05:25:31;1.02;;;0.50;;
58366;SDS011;57745;42.524;12.052;2023-03-01T05:28:01;1.52;;;0.82;;
58366;SDS011;57745;42.524;12.052;2023-03-01T05:30:30;2.30;;;1.23;;
58366;SDS011;57745;42.524;12.052;2023-03-01T05:32:56;1.52;;;0.90;;
58366;SDS011;57745;42.524;12.052;2023-03-01T05:35:22;1.42;;;0.60;;
58366;SDS011;57745;42.524;12.052;2023-03-01T05:37:48;0.82;;;0.50;;
58366;SDS011;57745;42.524;12.052;2023-03-01T05:40:16;1.15;;;0.45;;
58366;SDS011;57745;42.524;12.052;2023-03-01T05:42:46;3.35;;;1.17;;
58366;SDS011;57745;42.524;12.052;2023-03-01T05:45:14;2.35;;;1.20;;
58366;SDS011;57745;42.524;12.052;2023-03-01T05:47:41;0.77;;;0.47;;
58366;SDS011;57745;42.524;12.052;2023-03-01T05:50:31;1.20;;;0.80;;
58366;SDS011;57745;42.524;12.052;2023-03-01T05:52:59;0.80;;;0.50;;
58366;SDS011;57745;42.524;12.052;2023-03-01T05:55:26;0.68;;;0.50;;
58366;SDS011;57745;42.524;12.052;2023-03-01T05:57:52;1.67;;;0.55;;
58366;SDS011;57745;42.524;12.052;2023-03-01T06:00:18;0.50;;;0.40;;
58366;SDS011;57745;42.524;12.052;2023-03-01T06:02:48;1.05;;;0.40;;
58366;SDS011;57745;42.524;12.052;2023-03-01T06:05:14;1.35;;;0.40;;
58366;SDS011;57745;42.524;12.052;2023-03-01T06:07:40;0.85;;;0.30;;
58366;SDS011;57745;42.524;12.052;2023-03-01T06:10:07;1.20;;;0.50;;
58366;SDS011;57745;42.524;12.052;2023-03-01T06:12:34;0.88;;;0.55;;
58366;SDS011;57745;42.524;12.052;2023-03-01T06:15:01;2.08;;;0.50;;
58366;SDS011;57745;42.524;12.052;2023-03-01T06:17:29;0.63;;;0.40;;
58366;SDS011;57745;42.524;12.052;2023-03-01T06:19:56;1.23;;;0.52;;
58366;SDS011;57745;42.524;12.052;2023-03-01T06:22:21;0.70;;;0.50;;
58366;SDS011;57745;42.524;12.052;2023-03-01T06:24:47;0.60;;;0.60;;
58366;SDS011;57745;42.524;12.052;2023-03-01T06:27:12;1.05;;;0.65;;
58366;SDS011;57745;42.524;12.052;2023-03-01T06:29:38;0.75;;;0.50;;
58366;SDS011;57745;42.524;12.052;2023-03-01T06:32:03;1.33;;;0.60;;
58366;SDS011;57745;42.524;12.052;2023-03-01T06:34:29;1.00;;;0.50;;
58366;SDS011;57745;42.524;12.052;2023-03-01T06:36:54;0.70;;;0.50;;
58366;SDS011;57745;42.524;12.052;2023-03-01T06:39:20;0.70;;;0.50;;
58366;SDS011;57745;42.524;12.052;2023-03-01T06:41:45;0.85;;;0.50;;
58366;SDS011;57745;42.524;12.052;2023-03-01T06:44:11;0.82;;;0.50;;
58366;SDS011;57745;42.524;12.052;2023-03-01T06:46:36;0.95;;;0.63;;
58366;SDS011;57745;42.524;12.052;2023-03-01T06:49:02;0.82;;;0.63;;
58366;SDS011;57745;42.524;12.052;2023-03-01T06:51:32;2.10;;;1.20;;
58366;SDS011;57745;42.524;12.052;2023-03-01T06:53:58;5.65;;;2.72;;
58366;SDS011;57745;42.524;12.052;2023-03-01T06:56:23;7.85;;;3.47;;
58366;SDS011;57745;42.524;12.052;2023-03-01T06:58:49;9.90;;;4.35;;
58366;SDS011;57745;42.524;12.052;2023-03-01T07:01:14;20.42;;;7.82;;
58366;SDS011;57745;42.524;12.052;2023-03-01T07:03:40;18.25;;;6.22;;
58366;SDS011;57745;42.524;12.052;2023-03-01T07:06:05;16.85;;;7.05;;
58366;SDS011;57745;42.524;12.052;2023-03-01T07:08:31;28.55;;;13.20;;
58366;SDS011;57745;42.524;12.052;2023-03-01T07:10:58;36.05;;;18.42;;
58366;SDS011;57745;42.524;12.052;2023-03-01T07:13:24;25.58;;;15.20;;
58366;SDS011;57745;42.524;12.052;2023-03-01T07:15:50;17.90;;;11.05;;
58366;SDS011;57745;42.524;12.052;2023-03-01T07:18:15;8.70;;;5.57;;
58366;SDS011;57745;42.524;12.052;2023-03-01T07:20:41;10.50;;;7.47;;
58366;SDS011;57745;42.524;12.052;2023-03-01T07:23:06;5.43;;;3.75;;
58366;SDS011;57745;42.524;12.052;2023-03-01T07:25:32;3.25;;;2.20;;
58366;SDS011;57745;42.524;12.052;2023-03-01T07:27:58;3.72;;;1.70;;
58366;SDS011;57745;42.524;12.052;2023-03-01T07:30:23;3.00;;;1.10;;
58366;SDS011;57745;42.524;12.052;2023-03-01T07:32:51;2.33;;;1.50;;
58366;SDS011;57745;42.524;12.052;2023-03-01T07:35:17;1.92;;;1.50;;
58366;SDS011;57745;42.524;12.052;2023-03-01T07:37:42;3.00;;;1.80;;
58366;SDS011;57745;42.524;12.052;2023-03-01T07:40:08;1.98;;;1.55;;
58366;SDS011;57745;42.524;12.052;2023-03-01T07:42:34;1.83;;;1.45;;
58366;SDS011;57745;42.524;12.052;2023-03-01T07:44:59;1.95;;;1.25;;
58366;SDS011;57745;42.524;12.052;2023-03-01T07:47:25;1.65;;;1.20;;
58366;SDS011;57745;42.524;12.052;2023-03-01T07:49:50;1.45;;;0.90;;
58366;SDS011;57745;42.524;12.052;2023-03-01T07:52:16;1.13;;;0.75;;
58366;SDS011;57745;42.524;12.052;2023-03-01T07:54:44;1.35;;;0.85;;
58366;SDS011;57745;42.524;12.052;2023-03-01T07:57:10;2.25;;;0.60;;
58366;SDS011;57745;42.524;12.052;2023-03-01T07:59:36;1.23;;;0.90;;
58366;SDS011;57745;42.524;12.052;2023-03-01T08:02:01;1.77;;;0.90;;
58366;SDS011;57745;42.524;12.052;2023-03-01T08:04:27;1.10;;;0.95;;
58366;SDS011;57745;42.524;12.052;2023-03-01T08:06:53;2.50;;;1.55;;
58366;SDS011;57745;42.524;12.052;2023-03-01T08:09:19;2.67;;;1.25;;
58366;SDS011;57745;42.524;12.052;2023-03-01T08:11:45;1.80;;;1.10;;
58366;SDS011;57745;42.524;12.052;2023-03-01T08:14:11;1.63;;;1.20;;
58366;SDS011;57745;42.524;12.052;2023-03-01T08:16:37;1.02;;;0.80;;
58366;SDS011;57745;42.524;12.052;2023-03-01T08:19:06;1.20;;;0.90;;
58366;SDS011;57745;42.524;12.052;2023-03-01T08:21:32;1.20;;;0.80;;
58366;SDS011;57745;42.524;12.052;2023-03-01T08:23:59;0.60;;;0.50;;
58366;SDS011;57745;42.524;12.052;2023-03-01T08:26:26;0.88;;;0.60;;
58366;SDS011;57745;42.524;12.052;2023-03-01T08:28:51;2.20;;;1.27;;
58366;SDS011;57745;42.524;12.052;2023-03-01T08:33:44;3.03;;;1.30;;
58366;SDS011;57745;42.524;12.052;2023-03-01T08:36:15;2.17;;;1.30;;
58366;SDS011;57745;42.524;12.052;2023-03-01T08:38:41;1.70;;;1.08;;
58366;SDS011;57745;42.524;12.052;2023-03-01T08:41:07;2.05;;;1.10;;
58366;SDS011;57745;42.524;12.052;2023-03-01T08:43:32;2.05;;;1.30;;
58366;SDS011;57745;42.524;12.052;2023-03-01T08:45:58;1.70;;;1.08;;
58366;SDS011;57745;42.524;12.052;2023-03-01T08:48:23;1.02;;;0.90;;
58366;SDS011;57745;42.524;12.052;2023-03-01T08:50:50;0.80;;;0.60;;
58366;SDS011;57745;42.524;12.052;2023-03-01T08:53:15;0.60;;;0.50;;
58366;SDS011;57745;42.524;12.052;2023-03-01T08:55:41;0.50;;;0.50;;
58366;SDS011;57745;42.524;12.052;2023-03-01T08:58:06;0.82;;;0.50;;
58366;SDS011;57745;42.524;12.052;2023-03-01T09:00:32;0.65;;;0.47;;
58366;SDS011;57745;42.524;12.052;2023-03-01T09:02:59;0.70;;;0.70;;
58366;SDS011;57745;42.524;12.052;2023-03-01T09:05:25;0.50;;;0.40;;
58366;SDS011;57745;42.524;12.052;2023-03-01T09:07:51;0.90;;;0.45;;
58366;SDS011;57745;42.524;12.052;2023-03-01T09:10:16;0.50;;;0.40;;
58366;SDS011;57745;42.524;12.052;2023-03-01T09:12:42;1.27;;;0.60;;
58366;SDS011;57745;42.524;12.052;2023-03-01T09:15:08;2.72;;;1.20;;
58366;SDS011;57745;42.524;12.052;2023-03-01T09:17:33;1.95;;;0.93;;
58366;SDS011;57745;42.524;12.052;2023-03-01T09:19:59;1.27;;;0.80;;
58366;SDS011;57745;42.524;12.052;2023-03-01T09:22:24;2.03;;;1.10;;
58366;SDS011;57745;42.524;12.052;2023-03-01T09:24:50;2.30;;;1.15;;
58366;SDS011;57745;42.524;12.052;2023-03-01T09:27:15;1.98;;;1.00;;
58366;SDS011;57745;42.524;12.052;2023-03-01T09:29:43;2.47;;;1.40;;
58366;SDS011;57745;42.524;12.052;2023-03-01T09:32:09;7.88;;;3.35;;
58366;SDS011;57745;42.524;12.052;2023-03-01T09:34:35;8.52;;;3.90;;
58366;SDS011;57745;42.524;12.052;2023-03-01T09:37:20;11.00;;;5.00;;
58366;SDS011;57745;42.524;12.052;2023-03-01T09:39:46;10.40;;;3.88;;
58366;SDS011;57745;42.524;12.052;2023-03-01T09:42:11;26.75;;;11.75;;
58366;SDS011;57745;42.524;12.052;2023-03-01T09:47:30;16.42;;;7.75;;
58366;SDS011;57745;42.524;12.052;2023-03-01T09:50:05;8.55;;;3.67;;
58366;SDS011;57745;42.524;12.052;2023-03-01T09:55:15;7.03;;;2.78;;
58366;SDS011;57745;42.524;12.052;2023-03-01T09:58:29;6.05;;;2.95;;
58366;SDS011;57745;42.524;12.052;2023-03-01T10:00:50;4.63;;;1.88;;
58366;SDS011;57745;42.524;12.052;2023-03-01T10:03:25;3.05;;;1.65;;
58366;SDS011;57745;42.524;12.052;2023-03-01T10:06:01;3.78;;;1.25;;
58366;SDS011;57745;42.524;12.052;2023-03-01T10:11:31;1.55;;;1.00;;
58366;SDS011;57745;42.524;12.052;2023-03-01T10:14:07;1.67;;;1.10;;
58366;SDS011;57745;42.524;12.052;2023-03-01T10:19:23;3.45;;;1.70;;
58366;SDS011;57745;42.524;12.052;2023-03-01T10:21:54;2.40;;;1.30;;
58366;SDS011;57745;42.524;12.052;2023-03-01T10:24:25;2.95;;;1.50;;
58366;SDS011;57745;42.524;12.052;2023-03-01T10:26:57;5.40;;;3.17;;
58366;SDS011;57745;42.524;12.052;2023-03-01T10:29:31;1.90;;;1.17;;
58366;SDS011;57745;42.524;12.052;2023-03-01T10:32:02;2.58;;;1.08;;
58366;SDS011;57745;42.524;12.052;2023-03-01T10:34:32;1.90;;;1.30;;
58366;SDS011;57745;42.524;12.052;2023-03-01T10:37:10;2.67;;;1.50;;
58366;SDS011;57745;42.524;12.052;2023-03-01T10:39:53;2.13;;;1.10;;
58366;SDS011;57745;42.524;12.052;2023-03-01T10:42:25;1.30;;;0.80;;
58366;SDS011;57745;42.524;12.052;2023-03-01T10:44:55;1.30;;;0.90;;
58366;SDS011;57745;42.524;12.052;2023-03-01T10:47:22;1.08;;;0.82;;
58366;SDS011;57745;42.524;12.052;2023-03-01T10:49:54;0.95;;;0.80;;
58366;SDS011;57745;42.524;12.052;2023-03-01T10:52:29;1.15;;;0.77;;
58366;SDS011;57745;42.524;12.052;2023-03-01T10:55:23;0.90;;;0.60;;
58366;SDS011;57745;42.524;12.052;2023-03-01T10:57:50;1.10;;;0.60;;
58366;SDS011;57745;42.524;12.052;2023-03-01T11:00:32;1.17;;;0.60;;
58366;SDS011;57745;42.524;12.052;2023-03-01T11:05:24;1.63;;;0.50;;
58366;SDS011;57745;42.524;12.052;2023-03-01T11:07:54;0.82;;;0.70;;
58366;SDS011;57745;42.524;12.052;2023-03-01T11:13:05;0.90;;;0.50;;
58366;SDS011;57745;42.524;12.052;2023-03-01T11:16:01;1.25;;;0.63;;
58366;SDS011;57745;42.524;12.052;2023-03-01T11:18:37;2.63;;;0.80;;
58366;SDS011;57745;42.524;12.052;2023-03-01T11:21:03;0.82;;;0.50;;
58366;SDS011;57745;42.524;12.052;2023-03-01T11:23:33;1.10;;;0.70;;
58366;SDS011;57745;42.524;12.052;2023-03-01T11:26:03;1.50;;;1.23;;
58366;SDS011;57745;42.524;12.052;2023-03-01T11:28:33;1.58;;;0.52;;
58366;SDS011;57745;42.524;12.052;2023-03-01T11:38:36;2.45;;;1.60;;
58366;SDS011;57745;42.524;12.052;2023-03-01T11:41:07;3.75;;;1.77;;
58366;SDS011;57745;42.524;12.052;2023-03-01T11:43:59;2.83;;;1.67;;
58366;SDS011;57745;42.524;12.052;2023-03-01T12:07:23;2.03;;;1.10;;
58366;SDS011;57745;42.524;12.052;2023-03-01T12:25:58;2.83;;;1.60;;
58366;SDS011;57745;42.524;12.052;2023-03-01T12:38:59;3.85;;;2.78;;
58366;SDS011;57745;42.524;12.052;2023-03-01T12:41:42;3.55;;;2.10;;
58366;SDS011;57745;42.524;12.052;2023-03-01T12:49:56;2.53;;;1.70;;
58366;SDS011;57745;42.524;12.052;2023-03-01T12:52:29;3.40;;;1.70;;
58366;SDS011;57745;42.524;12.052;2023-03-01T12:55:39;2.35;;;1.60;;
58366;SDS011;57745;42.524;12.052;2023-03-01T13:09:57;2.10;;;1.52;;
58366;SDS011;57745;42.524;12.052;2023-03-01T13:12:42;2.65;;;1.40;;
58366;SDS011;57745;42.524;12.052;2023-03-01T13:17:47;2.42;;;1.40;;
58366;SDS011;57745;42.524;12.052;2023-03-01T13:20:19;1.63;;;1.10;;
58366;SDS011;57745;42.524;12.052;2023-03-01T13:23:04;1.70;;;1.27;;
58366;SDS011;57745;42.524;12.052;2023-03-01T13:25:33;1.30;;;0.90;;
58366;SDS011;57745;42.524;12.052;2023-03-01T13:31:00;1.60;;;0.98;;
58366;SDS011;57745;42.524;12.052;2023-03-01T13:35:52;3.00;;;1.13;;
58366;SDS011;57745;42.524;12.052;2023-03-01T13:44:25;1.33;;;1.02;;
58366;SDS011;57745;42.524;12.052;2023-03-01T13:50:15;2.10;;;1.17;;
58366;SDS011;57745;42.524;12.052;2023-03-01T13:52:35;1.75;;;1.05;;
58366;SDS011;57745;42.524;12.052;2023-03-01T13:55:03;1.00;;;0.73;;
58366;SDS011;57745;42.524;12.052;2023-03-01T13:57:35;1.73;;;1.05;;
58366;SDS011;57745;42.524;12.052;2023-03-01T14:00:04;4.22;;;1.40;;
58366;SDS011;57745;42.524;12.052;2023-03-01T14:02:30;3.10;;;1.70;;
58366;SDS011;57745;42.524;12.052;2023-03-01T14:04:57;4.07;;;2.00;;
58366;SDS011;57745;42.524;12.052;2023-03-01T14:07:23;4.05;;;2.33;;
58366;SDS011;57745;42.524;12.052;2023-03-01T14:09:51;5.13;;;2.17;;
58366;SDS011;57745;42.524;12.052;2023-03-01T14:15:14;6.07;;;3.13;;
58366;SDS011;57745;42.524;12.052;2023-03-01T14:17:49;4.95;;;2.50;;
58366;SDS011;57745;42.524;12.052;2023-03-01T14:20:43;6.40;;;4.43;;
58366;SDS011;57745;42.524;12.052;2023-03-01T14:23:17;6.95;;;3.67;;
58366;SDS011;57745;42.524;12.052;2023-03-01T14:25:51;6.65;;;3.00;;
58366;SDS011;57745;42.524;12.052;2023-03-01T14:28:31;2.40;;;1.70;;
58366;SDS011;57745;42.524;12.052;2023-03-01T14:30:59;3.95;;;2.40;;
58366;SDS011;57745;42.524;12.052;2023-03-01T14:41:02;4.15;;;2.70;;
58366;SDS011;57745;42.524;12.052;2023-03-01T14:43:38;6.15;;;3.65;;
58366;SDS011;57745;42.524;12.052;2023-03-01T14:46:16;6.22;;;3.47;;
58366;SDS011;57745;42.524;12.052;2023-03-01T14:48:44;5.20;;;2.63;;
58366;SDS011;57745;42.524;12.052;2023-03-01T14:51:10;7.30;;;3.63;;
58366;SDS011;57745;42.524;12.052;2023-03-01T14:53:37;4.90;;;3.15;;
58366;SDS011;57745;42.524;12.052;2023-03-01T14:56:02;4.50;;;2.45;;
58366;SDS011;57745;42.524;12.052;2023-03-01T14:58:28;3.97;;;1.80;;
58366;SDS011;57745;42.524;12.052;2023-03-01T15:00:59;4.78;;;2.33;;
58366;SDS011;57745;42.524;12.052;2023-03-01T15:03:34;3.65;;;2.67;;
58366;SDS011;57745;42.524;12.052;2023-03-01T15:06:05;7.10;;;3.20;;
58366;SDS011;57745;42.524;12.052;2023-03-01T15:08:32;5.25;;;3.15;;
58366;SDS011;57745;42.524;12.052;2023-03-01T15:11:00;5.55;;;3.13;;
58366;SDS011;57745;42.524;12.052;2023-03-01T15:13:38;6.03;;;2.97;;
58366;SDS011;57745;42.524;12.052;2023-03-01T15:18:30;6.47;;;3.83;;
58366;SDS011;57745;42.524;12.052;2023-03-01T15:20:56;3.85;;;2.60;;
58366;SDS011;57745;42.524;12.052;2023-03-01T15:23:32;5.45;;;3.50;;
58366;SDS011;57745;42.524;12.052;2023-03-01T15:25:57;4.65;;;3.10;;
58366;SDS011;57745;42.524;12.052;2023-03-01T15:28:24;3.95;;;2.83;;
58366;SDS011;57745;42.524;12.052;2023-03-01T15:30:56;3.60;;;1.90;;
58366;SDS011;57745;42.524;12.052;2023-03-01T15:33:37;3.42;;;2.42;;
58366;SDS011;57745;42.524;12.052;2023-03-01T15:36:04;5.00;;;2.95;;
58366;SDS011;57745;42.524;12.052;2023-03-01T15:39:23;5.10;;;2.72;;
58366;SDS011;57745;42.524;12.052;2023-03-01T15:41:55;4.05;;;2.60;;
58366;SDS011;57745;42.524;12.052;2023-03-01T15:44:28;8.25;;;5.07;;
58366;SDS011;57745;42.524;12.052;2023-03-01T15:46:55;7.53;;;5.10;;
58366;SDS011;57745;42.524;12.052;2023-03-01T15:49:26;6.07;;;2.90;;
58366;SDS011;57745;42.524;12.052;2023-03-01T15:51:58;2.92;;;2.30;;
58366;SDS011;57745;42.524;12.052;2023-03-01T15:54:25;4.13;;;1.90;;
58366;SDS011;57745;42.524;12.052;2023-03-01T15:56:52;3.25;;;2.15;;
58366;SDS011;57745;42.524;12.052;2023-03-01T15:59:18;2.80;;;1.85;;
58366;SDS011;57745;42.524;12.052;2023-03-01T16:01:43;3.45;;;1.98;;
58366;SDS011;57745;42.524;12.052;2023-03-01T16:04:10;2.58;;;1.80;;
58366;SDS011;57745;42.524;12.052;2023-03-01T16:06:41;2.72;;;1.83;;
58366;SDS011;57745;42.524;12.052;2023-03-01T16:09:07;5.35;;;1.75;;
58366;SDS011;57745;42.524;12.052;2023-03-01T16:11:32;3.47;;;1.70;;
58366;SDS011;57745;42.524;12.052;2023-03-01T16:14:01;3.25;;;1.70;;
58366;SDS011;57745;42.524;12.052;2023-03-01T16:16:27;5.28;;;4.43;;
58366;SDS011;57745;42.524;12.052;2023-03-01T16:18:53;3.97;;;3.63;;
58366;SDS011;57745;42.524;12.052;2023-03-01T16:21:20;2.92;;;2.63;;
58366;SDS011;57745;42.524;12.052;2023-03-01T16:23:50;7.82;;;3.60;;
58366;SDS011;57745;42.524;12.052;2023-03-01T16:26:16;5.30;;;2.78;;
58366;SDS011;57745;42.524;12.052;2023-03-01T16:28:43;6.18;;;3.80;;
58366;SDS011;57745;42.524;12.052;2023-03-01T16:31:09;5.43;;;3.17;;
58366;SDS011;57745;42.524;12.052;2023-03-01T16:33:35;12.05;;;3.75;;
58366;SDS011;57745;42.524;12.052;2023-03-01T16:36:06;4.18;;;3.72;;
58366;SDS011;57745;42.524;12.052;2023-03-01T16:38:32;5.78;;;4.45;;
58366;SDS011;57745;42.524;12.052;2023-03-01T16:40:58;3.90;;;3.35;;
58366;SDS011;57745;42.524;12.052;2023-03-01T16:43:23;4.57;;;3.45;;
58366;SDS011;57745;42.524;12.052;2023-03-01T16:45:49;5.35;;;2.88;;
58366;SDS011;57745;42.524;12.052;2023-03-01T16:48:15;5.57;;;2.92;;
58366;SDS011;57745;42.524;12.052;2023-03-01T16:50:40;4.97;;;2.75;;
58366;SDS011;57745;42.524;12.052;2023-03-01T16:53:06;5.55;;;2.80;;
58366;SDS011;57745;42.524;12.052;2023-03-01T16:55:31;12.30;;;5.72;;
58366;SDS011;57745;42.524;12.052;2023-03-01T16:57:58;12.00;;;5.57;;
58366;SDS011;57745;42.524;12.052;2023-03-01T17:00:23;7.78;;;5.25;;
58366;SDS011;57745;42.524;12.052;2023-03-01T17:02:49;10.00;;;6.00;;